createdAt,value
2016-11-19T00:00:56.606Z,960.99
2016-11-19T00:01:56.569Z,960.96
2016-11-19T00:02:56.529Z,960.93
2016-11-19T00:03:56.491Z,960.98
2016-11-19T00:04:56.449Z,960.97
2016-11-19T00:05:56.410Z,960.98
2016-11-19T00:06:56.371Z,961
2016-11-19T00:07:56.331Z,961.02
2016-11-19T00:08:56.294Z,961
2016-11-19T00:09:56.253Z,960.96
2016-11-19T00:10:56.214Z,960.95
2016-11-19T00:11:56.175Z,960.98
2016-11-19T00:12:56.137Z,960.92
2016-11-19T00:13:56.096Z,960.86
2016-11-19T00:14:56.057Z,960.86
2016-11-19T00:15:56.018Z,960.86
2016-11-19T00:16:55.979Z,960.81
2016-11-19T00:17:55.939Z,960.82
2016-11-19T00:18:55.899Z,960.88
2016-11-19T00:19:55.861Z,960.89
2016-11-19T00:20:55.821Z,960.89
2016-11-19T00:21:55.782Z,960.89
2016-11-19T00:22:55.743Z,960.94
2016-11-19T00:23:55.703Z,960.9
2016-11-19T00:24:55.663Z,960.87
2016-11-19T00:25:55.626Z,960.87
2016-11-19T00:26:55.585Z,960.92
2016-11-19T00:27:55.547Z,960.92
2016-11-19T00:28:55.507Z,960.86
2016-11-19T00:29:55.468Z,960.85
2016-11-19T00:30:55.429Z,960.86
2016-11-19T00:31:55.390Z,960.8
2016-11-19T00:32:55.349Z,960.72
2016-11-19T00:33:55.310Z,960.69
2016-11-19T00:34:55.273Z,960.7
2016-11-19T00:35:55.232Z,960.71
2016-11-19T00:36:55.193Z,960.7
2016-11-19T00:37:55.155Z,960.68
2016-11-19T00:38:55.117Z,960.64
2016-11-19T00:39:55.077Z,960.58
2016-11-19T00:40:55.037Z,960.47
2016-11-19T00:41:54.998Z,960.47
2016-11-19T00:42:54.960Z,960.43
2016-11-19T00:43:54.918Z,960.44
2016-11-19T00:44:54.880Z,960.44
2016-11-19T00:45:54.840Z,960.43
2016-11-19T00:46:54.800Z,960.43
2016-11-19T00:47:54.763Z,960.45
2016-11-19T00:48:54.722Z,960.44
2016-11-19T00:49:54.684Z,960.41
2016-11-19T00:50:54.643Z,960.44
2016-11-19T00:51:54.605Z,960.37
2016-11-19T00:52:54.566Z,960.37
2016-11-19T00:53:54.527Z,960.38
2016-11-19T00:54:54.489Z,960.35
2016-11-19T00:55:54.447Z,960.32
2016-11-19T00:56:54.409Z,960.32
2016-11-19T00:57:54.369Z,960.34
2016-11-19T00:58:54.330Z,960.33
2016-11-19T00:59:54.297Z,960.32
2016-11-19T01:00:54.251Z,960.33
2016-11-19T01:01:54.212Z,960.32
2016-11-19T01:02:54.172Z,960.35
2016-11-19T01:03:54.132Z,960.35
2016-11-19T01:04:54.096Z,960.39
2016-11-19T01:05:54.056Z,960.34
2016-11-19T01:06:54.014Z,960.3
2016-11-19T01:07:53.976Z,960.32
2016-11-19T01:08:53.936Z,960.27
2016-11-19T01:09:53.896Z,960.28
2016-11-19T01:10:53.857Z,960.3
2016-11-19T01:11:53.820Z,960.27
2016-11-19T01:12:53.780Z,960.33
2016-11-19T01:13:53.741Z,960.33
2016-11-19T01:14:53.700Z,960.31
2016-11-19T01:15:53.661Z,960.33
2016-11-19T01:16:53.622Z,960.35
2016-11-19T01:17:53.582Z,960.32
2016-11-19T01:18:53.544Z,960.34
2016-11-19T01:19:53.504Z,960.32
2016-11-19T01:20:53.462Z,960.32
2016-11-19T01:21:53.426Z,960.37
2016-11-19T01:22:53.385Z,960.37
2016-11-19T01:23:53.348Z,960.35
2016-11-19T01:24:53.307Z,960.35
2016-11-19T01:25:53.266Z,960.34
2016-11-19T01:26:53.230Z,960.36
2016-11-19T01:27:53.190Z,960.33
2016-11-19T01:28:53.148Z,960.3
2016-11-19T01:29:53.111Z,960.29
2016-11-19T01:30:53.103Z,960.26
2016-11-19T01:31:53.032Z,960.21
2016-11-19T01:32:52.993Z,960.17
2016-11-19T01:33:52.952Z,960.14
2016-11-19T01:34:52.917Z,960.09
2016-11-19T01:35:52.876Z,960.08
2016-11-19T01:36:52.833Z,960.02
2016-11-19T01:37:52.794Z,959.98
2016-11-19T01:38:52.757Z,959.98
2016-11-19T01:39:52.716Z,959.98
2016-11-19T01:40:52.677Z,959.94
2016-11-19T01:41:52.638Z,959.91
2016-11-19T01:42:52.597Z,959.87
2016-11-19T01:43:52.559Z,959.86
2016-11-19T01:44:52.520Z,959.84
2016-11-19T01:45:52.479Z,959.8
2016-11-19T01:46:52.438Z,959.82
2016-11-19T01:47:52.400Z,959.78
2016-11-19T01:48:52.364Z,959.78
2016-11-19T01:49:52.321Z,959.76
2016-11-19T01:50:52.283Z,959.73
2016-11-19T01:51:52.241Z,959.69
2016-11-19T01:52:52.203Z,959.66
2016-11-19T01:53:52.163Z,959.59
2016-11-19T01:54:52.123Z,959.59
2016-11-19T01:55:52.088Z,959.56
2016-11-19T01:56:52.043Z,959.6
2016-11-19T01:57:52.003Z,959.58
2016-11-19T01:58:51.964Z,959.6
2016-11-19T01:59:51.925Z,959.61
2016-11-19T02:00:51.886Z,959.62
2016-11-19T02:01:51.844Z,959.64
2016-11-19T02:02:51.816Z,959.63
2016-11-19T02:03:51.765Z,959.68
2016-11-19T02:04:51.725Z,959.64
2016-11-19T02:05:51.685Z,959.6
2016-11-19T02:06:51.646Z,959.59
2016-11-19T02:07:51.605Z,959.55
2016-11-19T02:08:51.590Z,959.51
2016-11-19T02:09:51.526Z,959.49
2016-11-19T02:10:51.486Z,959.48
2016-11-19T02:11:51.447Z,959.5
2016-11-19T02:12:51.406Z,959.46
2016-11-19T02:13:51.368Z,959.44
2016-11-19T02:14:51.328Z,959.45
2016-11-19T02:15:51.287Z,959.41
2016-11-19T02:16:51.249Z,959.39
2016-11-19T02:17:51.207Z,959.4
2016-11-19T02:18:51.169Z,959.36
2016-11-19T02:19:51.128Z,959.35
2016-11-19T02:20:51.092Z,959.37
2016-11-19T02:21:51.058Z,959.43
2016-11-19T02:22:51.008Z,959.39
2016-11-19T02:23:50.970Z,959.38
2016-11-19T02:24:50.929Z,959.36
2016-11-19T02:25:50.890Z,959.34
2016-11-19T02:26:50.853Z,959.34
2016-11-19T02:27:50.810Z,959.33
2016-11-19T02:28:50.769Z,959.34
2016-11-19T02:29:50.730Z,959.32
2016-11-19T02:30:50.689Z,959.31
2016-11-19T02:31:50.651Z,959.28
2016-11-19T02:32:50.612Z,959.25
2016-11-19T02:33:50.569Z,959.19
2016-11-19T02:34:50.531Z,959.14
2016-11-19T02:35:50.494Z,959.19
2016-11-19T02:36:50.451Z,959.15
2016-11-19T02:37:50.413Z,959.09
2016-11-19T02:38:50.371Z,959.13
2016-11-19T02:39:50.331Z,959.08
2016-11-19T02:40:50.297Z,959.11
2016-11-19T02:41:50.251Z,959.06
2016-11-19T02:42:50.211Z,959.08
2016-11-19T02:43:50.177Z,959.05
2016-11-19T02:44:50.134Z,959
2016-11-19T02:45:50.093Z,959.02
2016-11-19T02:46:50.053Z,958.98
2016-11-19T02:47:50.013Z,958.99
2016-11-19T02:48:49.972Z,958.94
2016-11-19T02:49:49.933Z,958.97
2016-11-19T02:50:49.900Z,958.98
2016-11-19T02:51:49.854Z,958.94
2016-11-19T02:52:49.813Z,958.97
2016-11-19T02:53:49.775Z,958.97
2016-11-19T02:54:49.734Z,958.97
2016-11-19T02:55:49.693Z,958.98
2016-11-19T02:56:49.654Z,958.98
2016-11-19T02:57:49.615Z,958.94
2016-11-19T02:58:49.581Z,958.97
2016-11-19T02:59:49.536Z,958.95
2016-11-19T03:00:49.495Z,959.03
2016-11-19T03:01:49.457Z,959.01
2016-11-19T03:02:49.417Z,959
2016-11-19T03:03:49.375Z,959
2016-11-19T03:04:49.336Z,959.01
2016-11-19T03:05:49.297Z,959.02
2016-11-19T03:06:49.258Z,958.99
2016-11-19T03:07:49.216Z,958.98
2016-11-19T03:08:49.176Z,958.95
2016-11-19T03:09:49.144Z,958.93
2016-11-19T03:10:49.097Z,958.92
2016-11-19T03:11:49.058Z,958.95
2016-11-19T03:12:49.020Z,958.94
2016-11-19T03:13:48.978Z,958.95
2016-11-19T03:14:48.938Z,958.99
2016-11-19T03:15:48.898Z,958.97
2016-11-19T03:16:48.859Z,958.96
2016-11-19T03:17:48.820Z,958.94
2016-11-19T03:18:48.778Z,958.98
2016-11-19T03:19:48.740Z,959
2016-11-19T03:20:48.699Z,959.01
2016-11-19T03:21:48.658Z,959.05
2016-11-19T03:22:48.620Z,959.02
2016-11-19T03:23:48.580Z,959.07
2016-11-19T03:24:48.540Z,959.04
2016-11-19T03:25:48.500Z,959.02
2016-11-19T03:26:48.460Z,959.03
2016-11-19T03:27:48.420Z,958.98
2016-11-19T03:28:48.381Z,958.98
2016-11-19T03:29:48.339Z,959
2016-11-19T03:30:48.300Z,959.03
2016-11-19T03:31:48.260Z,959.04
2016-11-19T03:32:48.220Z,959.05
2016-11-19T03:33:48.180Z,959.05
2016-11-19T03:34:48.141Z,959.09
2016-11-19T03:35:48.103Z,959.11
2016-11-19T03:36:48.060Z,959.14
2016-11-19T03:37:48.020Z,959.09
2016-11-19T03:38:47.980Z,959.14
2016-11-19T03:39:47.941Z,959.09
2016-11-19T03:40:47.901Z,959.11
2016-11-19T03:41:47.863Z,959.12
2016-11-19T03:42:47.821Z,959.17
2016-11-19T03:43:47.782Z,959.14
2016-11-19T03:44:47.740Z,959.16
2016-11-19T03:45:47.701Z,959.15
2016-11-19T03:46:47.660Z,959.13
2016-11-19T03:47:47.621Z,959.1
2016-11-19T03:48:47.580Z,959.13
2016-11-19T03:49:47.541Z,959.13
2016-11-19T03:50:47.502Z,959.12
2016-11-19T03:51:47.460Z,959.14
2016-11-19T03:52:47.420Z,959.09
2016-11-19T03:53:47.380Z,959.11
2016-11-19T03:54:47.341Z,959.14
2016-11-19T03:55:47.300Z,959.11
2016-11-19T03:56:47.260Z,959.06
2016-11-19T03:57:47.220Z,959.06
2016-11-19T03:58:47.184Z,959.06
2016-11-19T03:59:47.140Z,959.03
2016-11-19T04:00:47.100Z,959.06
2016-11-19T04:01:47.059Z,959.1
2016-11-19T04:02:47.024Z,959.08
2016-11-19T04:03:46.980Z,959.01
2016-11-19T04:04:46.941Z,959.01
2016-11-19T04:05:46.899Z,959.01
2016-11-19T04:06:46.867Z,959.09
2016-11-19T04:07:46.819Z,959.09
2016-11-19T04:08:46.778Z,959.14
2016-11-19T04:09:46.739Z,959.09
2016-11-19T04:10:46.699Z,959.11
2016-11-19T04:11:46.658Z,959.05
2016-11-19T04:12:46.618Z,959.04
2016-11-19T04:13:46.578Z,959.07
2016-11-19T04:14:46.539Z,959.03
2016-11-19T04:15:46.499Z,959.02
2016-11-19T04:16:46.458Z,958.98
2016-11-19T04:17:46.417Z,958.98
2016-11-19T04:18:46.378Z,958.94
2016-11-19T04:19:46.337Z,958.94
2016-11-19T04:20:46.299Z,958.91
2016-11-19T04:21:46.258Z,958.91
2016-11-19T04:22:46.218Z,958.86
2016-11-19T04:23:46.177Z,958.88
2016-11-19T04:24:46.138Z,958.85
2016-11-19T04:25:46.097Z,958.87
2016-11-19T04:26:46.055Z,958.86
2016-11-19T04:27:46.016Z,958.86
2016-11-19T04:28:45.975Z,958.82
2016-11-19T04:29:45.935Z,958.81
2016-11-19T04:30:45.895Z,958.79
2016-11-19T04:31:45.854Z,958.74
2016-11-19T04:32:45.816Z,958.75
2016-11-19T04:33:45.773Z,958.77
2016-11-19T04:34:45.733Z,958.73
2016-11-19T04:35:45.693Z,958.83
2016-11-19T04:36:45.654Z,958.86
2016-11-19T04:37:45.614Z,958.87
2016-11-19T04:38:45.572Z,958.87
2016-11-19T04:39:45.533Z,958.96
2016-11-19T04:40:45.492Z,958.95
2016-11-19T04:41:45.452Z,958.95
2016-11-19T04:42:45.412Z,958.95
2016-11-19T04:43:45.375Z,958.96
2016-11-19T04:44:45.332Z,958.89
2016-11-19T04:45:45.291Z,958.85
2016-11-19T04:46:45.251Z,958.86
2016-11-19T04:47:45.211Z,958.8
2016-11-19T04:48:45.173Z,958.76
2016-11-19T04:49:45.131Z,958.75
2016-11-19T04:50:45.091Z,958.73
2016-11-19T04:51:45.051Z,958.7
2016-11-19T04:52:45.016Z,958.64
2016-11-19T04:53:44.974Z,958.67
2016-11-19T04:54:44.929Z,958.62
2016-11-19T04:55:44.890Z,958.56
2016-11-19T04:56:44.849Z,958.52
2016-11-19T04:57:44.809Z,958.48
2016-11-19T04:58:44.769Z,958.46
2016-11-19T04:59:44.729Z,958.49
2016-11-19T05:00:44.688Z,958.45
2016-11-19T05:01:44.648Z,958.5
2016-11-19T05:02:44.608Z,958.45
2016-11-19T05:03:44.583Z,958.46
2016-11-19T05:04:44.529Z,958.47
2016-11-19T05:05:44.486Z,958.56
2016-11-19T05:06:44.448Z,958.53
2016-11-19T05:07:44.408Z,958.49
2016-11-19T05:08:44.366Z,958.52
2016-11-19T05:09:44.326Z,958.59
2016-11-19T05:10:44.286Z,958.53
2016-11-19T05:11:44.244Z,958.45
2016-11-19T05:12:44.204Z,958.48
2016-11-19T05:13:44.164Z,958.48
2016-11-19T05:14:44.124Z,958.43
2016-11-19T05:15:44.083Z,958.43
2016-11-19T05:16:44.043Z,958.46
2016-11-19T05:17:44.003Z,958.45
2016-11-19T05:18:43.963Z,958.46
2016-11-19T05:19:43.945Z,958.42
2016-11-19T05:20:43.884Z,958.4
2016-11-19T05:21:43.843Z,958.41
2016-11-19T05:22:43.802Z,958.39
2016-11-19T05:23:43.763Z,958.39
2016-11-19T05:24:43.722Z,958.39
2016-11-19T05:25:43.681Z,958.43
2016-11-19T05:26:43.641Z,958.43
2016-11-19T05:27:43.602Z,958.38
2016-11-19T05:28:43.560Z,958.37
2016-11-19T05:29:43.520Z,958.43
2016-11-19T05:30:43.480Z,958.31
2016-11-19T05:31:43.440Z,958.32
2016-11-19T05:32:43.400Z,958.26
2016-11-19T05:33:43.360Z,958.24
2016-11-19T05:34:43.318Z,958.23
2016-11-19T05:35:43.280Z,958.14
2016-11-19T05:36:43.238Z,958.17
2016-11-19T05:37:43.197Z,958.14
2016-11-19T05:38:43.158Z,958.12
2016-11-19T05:39:43.117Z,958.11
2016-11-19T05:40:43.076Z,958.14
2016-11-19T05:41:43.036Z,958.09
2016-11-19T05:42:42.996Z,958.09
2016-11-19T05:43:42.955Z,958.12
2016-11-19T05:44:42.915Z,958.14
2016-11-19T05:45:42.876Z,958.1
2016-11-19T05:46:42.835Z,958.14
2016-11-19T05:47:42.792Z,958.17
2016-11-19T05:48:42.754Z,958.1
2016-11-19T05:49:42.712Z,958.11
2016-11-19T05:50:42.674Z,958.15
2016-11-19T05:51:42.633Z,958.14
2016-11-19T05:52:42.592Z,958.14
2016-11-19T05:53:42.552Z,958.05
2016-11-19T05:54:42.512Z,958.04
2016-11-19T05:55:42.471Z,958.08
2016-11-19T05:56:42.431Z,958.07
2016-11-19T05:57:42.389Z,958.03
2016-11-19T05:58:42.350Z,958.06
2016-11-19T05:59:42.311Z,958.04
2016-11-19T06:00:42.271Z,958
2016-11-19T06:01:42.233Z,958.03
2016-11-19T06:02:42.189Z,957.99
2016-11-19T06:03:42.150Z,958.01
2016-11-19T06:04:42.109Z,958.05
2016-11-19T06:05:42.068Z,958.09
2016-11-19T06:06:42.028Z,958.11
2016-11-19T06:07:41.988Z,958.15
2016-11-19T06:08:41.947Z,958.17
2016-11-19T06:09:41.906Z,958.16
2016-11-19T06:10:41.868Z,958.16
2016-11-19T06:11:41.826Z,958.1
2016-11-19T06:12:41.793Z,958.12
2016-11-19T06:13:41.746Z,958.13
2016-11-19T06:14:41.708Z,958.15
2016-11-19T06:15:41.665Z,958.09
2016-11-19T06:16:41.624Z,958.03
2016-11-19T06:17:41.584Z,958.09
2016-11-19T06:18:41.544Z,958.12
2016-11-19T06:19:41.504Z,958.13
2016-11-19T06:20:41.465Z,958.14
2016-11-19T06:21:41.423Z,958.07
2016-11-19T06:22:41.384Z,958.08
2016-11-19T06:23:41.342Z,958.07
2016-11-19T06:24:41.304Z,958.07
2016-11-19T06:25:41.262Z,958.03
2016-11-19T06:26:41.222Z,958.02
2016-11-19T06:27:41.182Z,957.97
2016-11-19T06:28:41.142Z,957.9
2016-11-19T06:29:41.102Z,957.91
2016-11-19T06:30:41.062Z,957.91
2016-11-19T06:31:41.020Z,957.92
2016-11-19T06:32:40.980Z,957.92
2016-11-19T06:33:40.939Z,957.89
2016-11-19T06:34:40.901Z,957.95
2016-11-19T06:35:40.859Z,957.93
2016-11-19T06:36:40.819Z,957.96
2016-11-19T06:37:40.777Z,957.94
2016-11-19T06:38:40.738Z,957.85
2016-11-19T06:39:40.698Z,957.8
2016-11-19T06:40:40.659Z,957.8
2016-11-19T06:41:40.619Z,957.81
2016-11-19T06:42:40.578Z,957.8
2016-11-19T06:43:40.537Z,957.78
2016-11-19T06:44:40.498Z,957.74
2016-11-19T06:45:40.460Z,957.75
2016-11-19T06:46:40.417Z,957.7
2016-11-19T06:47:40.378Z,957.76
2016-11-19T06:48:40.338Z,957.71
2016-11-19T06:49:40.295Z,957.71
2016-11-19T06:50:40.257Z,957.7
2016-11-19T06:51:40.231Z,957.75
2016-11-19T06:52:40.176Z,957.74
2016-11-19T06:53:40.137Z,957.8
2016-11-19T06:54:40.095Z,957.77
2016-11-19T06:55:40.055Z,957.76
2016-11-19T06:56:40.016Z,957.69
2016-11-19T06:57:39.975Z,957.71
2016-11-19T06:58:39.936Z,957.74
2016-11-19T06:59:39.897Z,957.7
2016-11-19T07:00:39.855Z,957.66
2016-11-19T07:01:39.815Z,957.64
2016-11-19T07:02:39.774Z,957.59
2016-11-19T07:03:39.741Z,957.62
2016-11-19T07:04:39.696Z,957.65
2016-11-19T07:05:39.655Z,957.74
2016-11-19T07:06:40.017Z,957.65
2016-11-19T07:07:39.575Z,957.66
2016-11-19T07:08:40.051Z,957.75
2016-11-19T07:09:39.545Z,957.75
2016-11-19T07:10:39.755Z,957.79
2016-11-19T07:11:39.906Z,957.73
2016-11-19T07:12:39.409Z,957.78
2016-11-19T07:13:39.506Z,957.72
2016-11-19T07:14:39.826Z,957.64
2016-11-19T07:15:39.644Z,957.66
2016-11-19T07:16:39.214Z,957.68
2016-11-19T07:17:39.345Z,957.71
2016-11-19T07:18:39.703Z,957.69
2016-11-19T07:19:39.196Z,957.58
2016-11-19T07:20:39.573Z,957.5
2016-11-19T07:21:39.189Z,957.55
2016-11-19T07:22:39.493Z,957.53
2016-11-19T07:23:39.012Z,957.45
2016-11-19T07:24:39.158Z,957.5
2016-11-19T07:25:39.019Z,957.45
2016-11-19T07:26:39.337Z,957.46
2016-11-19T07:27:39.021Z,957.5
2016-11-19T07:28:39.117Z,957.64
2016-11-19T07:29:38.857Z,957.56
2016-11-19T07:30:38.649Z,957.62
2016-11-19T07:31:38.612Z,957.61
2016-11-19T07:32:39.082Z,957.65
2016-11-19T07:33:39.029Z,957.63
2016-11-19T07:34:38.489Z,957.65
2016-11-19T07:35:38.958Z,957.75
2016-11-19T07:36:39.324Z,957.56
2016-11-19T07:37:38.368Z,957.47
2016-11-19T07:38:38.328Z,957.58
2016-11-19T07:39:38.288Z,957.71
2016-11-19T07:40:38.247Z,957.65
2016-11-19T07:41:38.208Z,957.73
2016-11-19T07:42:38.169Z,957.72
2016-11-19T07:43:38.129Z,957.67
2016-11-19T07:44:38.088Z,957.67
2016-11-19T07:45:38.047Z,957.72
2016-11-19T07:46:38.556Z,957.75
2016-11-19T07:47:37.969Z,957.7
2016-11-19T07:48:37.927Z,957.74
2016-11-19T07:49:38.072Z,957.79
2016-11-19T07:50:38.410Z,957.87
2016-11-19T07:51:37.907Z,957.78
2016-11-19T07:52:38.092Z,957.88
2016-11-19T07:53:37.951Z,957.98
2016-11-19T07:54:37.839Z,957.87
2016-11-19T07:55:37.679Z,957.81
2016-11-19T07:56:37.917Z,957.81
2016-11-19T07:57:37.764Z,957.9
2016-11-19T07:58:37.578Z,957.92
2016-11-19T07:59:38.010Z,957.93
2016-11-19T08:00:38.035Z,957.89
2016-11-19T08:01:37.878Z,957.97
2016-11-19T08:02:37.407Z,957.95
2016-11-19T08:03:37.848Z,957.92
2016-11-19T08:04:37.285Z,957.91
2016-11-19T08:05:37.245Z,957.9
2016-11-19T08:06:37.206Z,957.84
2016-11-19T08:07:37.165Z,957.86
2016-11-19T08:08:37.127Z,957.89
2016-11-19T08:09:37.085Z,957.84
2016-11-19T08:10:37.045Z,957.91
2016-11-19T08:11:37.005Z,957.91
2016-11-19T08:12:36.965Z,957.91
2016-11-19T08:13:36.925Z,957.89
2016-11-19T08:14:36.891Z,957.86
2016-11-19T08:15:36.846Z,957.82
2016-11-19T08:16:36.805Z,957.8
2016-11-19T08:17:36.764Z,957.85
2016-11-19T08:18:36.725Z,957.8
2016-11-19T08:19:36.685Z,957.86
2016-11-19T08:20:36.646Z,957.92
2016-11-19T08:21:36.613Z,957.87
2016-11-19T08:22:36.567Z,957.86
2016-11-19T08:23:36.525Z,957.87
2016-11-19T08:24:36.486Z,957.92
2016-11-19T08:25:36.447Z,957.96
2016-11-19T08:26:36.406Z,957.94
2016-11-19T08:27:36.367Z,957.94
2016-11-19T08:28:36.325Z,957.97
2016-11-19T08:29:36.287Z,957.88
2016-11-19T08:30:36.247Z,957.89
2016-11-19T08:31:36.209Z,957.93
2016-11-19T08:32:36.166Z,957.99
2016-11-19T08:33:36.128Z,958.05
2016-11-19T08:34:36.088Z,958.06
2016-11-19T08:35:36.048Z,958.03
2016-11-19T08:36:36.006Z,958.06
2016-11-19T08:37:35.967Z,958.03
2016-11-19T08:38:36.085Z,958.14
2016-11-19T08:39:35.888Z,958.15
2016-11-19T08:40:36.043Z,958.19
2016-11-19T08:41:35.810Z,958.51
2016-11-19T08:42:35.770Z,958.59
2016-11-19T08:43:36.120Z,958.57
2016-11-19T08:44:35.743Z,958.57
2016-11-19T08:45:35.798Z,958.71
2016-11-19T08:46:35.612Z,958.78
2016-11-19T08:47:35.674Z,958.63
2016-11-19T08:48:35.553Z,958.67
2016-11-19T08:49:35.635Z,958.71
2016-11-19T08:50:35.555Z,958.76
2016-11-19T08:51:35.420Z,958.75
2016-11-19T08:52:35.441Z,958.78
2016-11-19T08:53:35.401Z,958.84
2016-11-19T08:54:35.663Z,958.89
2016-11-19T08:55:35.253Z,958.91
2016-11-19T08:56:35.216Z,959.05
2016-11-19T08:57:35.174Z,959.04
2016-11-19T08:58:35.137Z,959.12
2016-11-19T08:59:35.095Z,959.13
2016-11-19T09:00:35.057Z,959.21
2016-11-19T09:01:35.015Z,959.27
2016-11-19T09:02:34.977Z,959.31
2016-11-19T09:03:34.937Z,959.37
2016-11-19T09:04:34.897Z,959.4
2016-11-19T09:05:34.857Z,959.49
2016-11-19T09:06:34.819Z,959.5
2016-11-19T09:07:34.783Z,959.47
2016-11-19T09:08:34.739Z,959.46
2016-11-19T09:09:34.700Z,959.46
2016-11-19T09:10:34.661Z,959.44
2016-11-19T09:11:34.622Z,959.47
2016-11-19T09:12:34.581Z,959.57
2016-11-19T09:13:34.542Z,959.65
2016-11-19T09:14:34.503Z,959.73
2016-11-19T09:15:34.465Z,959.78
2016-11-19T09:16:34.424Z,959.86
2016-11-19T09:17:34.385Z,959.89
2016-11-19T09:18:34.346Z,959.93
2016-11-19T09:19:34.306Z,959.89
2016-11-19T09:20:34.269Z,959.98
2016-11-19T09:21:34.231Z,959.99
2016-11-19T09:22:34.189Z,959.96
2016-11-19T09:23:34.149Z,959.96
2016-11-19T09:24:34.110Z,960.04
2016-11-19T09:25:34.072Z,959.99
2016-11-19T09:26:34.031Z,960.07
2016-11-19T09:27:33.992Z,960.12
2016-11-19T09:28:33.954Z,960.15
2016-11-19T09:29:33.922Z,960.16
2016-11-19T09:30:33.876Z,960.22
2016-11-19T09:31:33.835Z,960.23
2016-11-19T09:32:33.795Z,960.23
2016-11-19T09:33:33.755Z,960.22
2016-11-19T09:34:33.717Z,960.27
2016-11-19T09:35:33.678Z,960.27
2016-11-19T09:36:33.639Z,960.29
2016-11-19T09:37:33.598Z,960.31
2016-11-19T09:38:33.558Z,960.35
2016-11-19T09:39:33.521Z,960.36
2016-11-19T09:40:33.481Z,960.33
2016-11-19T09:41:33.440Z,960.35
2016-11-19T09:42:33.401Z,960.39
2016-11-19T09:43:33.361Z,960.33
2016-11-19T09:44:33.323Z,960.41
2016-11-19T09:45:33.282Z,960.45
2016-11-19T09:46:33.248Z,960.45
2016-11-19T09:47:33.204Z,960.53
2016-11-19T09:48:33.163Z,960.54
2016-11-19T09:49:33.124Z,960.52
2016-11-19T09:50:33.085Z,960.61
2016-11-19T09:51:33.045Z,960.59
2016-11-19T09:52:33.006Z,960.56
2016-11-19T09:53:32.965Z,960.58
2016-11-19T09:54:32.927Z,960.62
2016-11-19T09:55:32.887Z,960.63
2016-11-19T09:56:32.847Z,960.73
2016-11-19T09:57:32.808Z,960.7
2016-11-19T09:58:32.768Z,960.74
2016-11-19T09:59:32.728Z,960.7
2016-11-19T10:00:32.688Z,960.74
2016-11-19T10:01:32.649Z,960.72
2016-11-19T10:02:32.611Z,960.74
2016-11-19T10:03:32.571Z,960.76
2016-11-19T10:04:32.532Z,960.81
2016-11-19T10:05:32.492Z,960.76
2016-11-19T10:06:32.453Z,960.73
2016-11-19T10:07:32.413Z,960.69
2016-11-19T10:08:32.374Z,960.67
2016-11-19T10:09:32.335Z,960.71
2016-11-19T10:10:32.294Z,960.64
2016-11-19T10:11:32.254Z,960.71
2016-11-19T10:12:32.215Z,960.71
2016-11-19T10:13:32.178Z,960.72
2016-11-19T10:14:32.137Z,960.65
2016-11-19T10:15:32.101Z,960.67
2016-11-19T10:16:32.059Z,960.62
2016-11-19T10:17:32.017Z,960.67
2016-11-19T10:18:31.980Z,960.62
2016-11-19T10:19:31.940Z,960.66
2016-11-19T10:20:31.901Z,960.69
2016-11-19T10:21:31.861Z,960.74
2016-11-19T10:22:31.822Z,960.77
2016-11-19T10:23:31.783Z,960.74
2016-11-19T10:24:31.742Z,960.67
2016-11-19T10:25:31.702Z,960.68
2016-11-19T10:26:31.663Z,960.67
2016-11-19T10:27:31.624Z,960.71
2016-11-19T10:28:31.585Z,960.7
2016-11-19T10:29:31.544Z,960.73
2016-11-19T10:30:31.508Z,960.81
2016-11-19T10:31:31.466Z,960.84
2016-11-19T10:32:31.426Z,960.94
2016-11-19T10:33:31.389Z,960.91
2016-11-19T10:34:31.348Z,960.91
2016-11-19T10:35:31.309Z,960.94
2016-11-19T10:36:31.269Z,960.88
2016-11-19T10:37:31.230Z,960.9
2016-11-19T10:38:31.191Z,960.85
2016-11-19T10:39:31.156Z,960.88
2016-11-19T10:40:31.110Z,960.92
2016-11-19T10:41:31.070Z,960.98
2016-11-19T10:42:31.033Z,961.06
2016-11-19T10:43:30.990Z,961.03
2016-11-19T10:44:30.954Z,961.06
2016-11-19T10:45:30.914Z,961.11
2016-11-19T10:46:30.877Z,961.13
2016-11-19T10:47:30.835Z,961.16
2016-11-19T10:48:30.795Z,961.18
2016-11-19T10:49:30.757Z,961.18
2016-11-19T10:50:30.714Z,961.12
2016-11-19T10:51:30.678Z,961.12
2016-11-19T10:52:30.638Z,961.13
2016-11-19T10:53:30.596Z,961.12
2016-11-19T10:54:30.557Z,961.12
2016-11-19T10:55:30.515Z,961.2
2016-11-19T10:56:30.478Z,961.21
2016-11-19T10:57:30.440Z,961.27
2016-11-19T10:58:30.398Z,961.15
2016-11-19T10:59:30.359Z,961.16
2016-11-19T11:00:30.319Z,961.16
2016-11-19T11:01:30.279Z,961.13
2016-11-19T11:02:30.239Z,961.14
2016-11-19T11:03:30.199Z,961.19
2016-11-19T11:04:30.160Z,961.25
2016-11-19T11:05:30.120Z,961.33
2016-11-19T11:06:30.080Z,961.37
2016-11-19T11:07:30.044Z,961.33
2016-11-19T11:08:30.002Z,961.27
2016-11-19T11:09:29.963Z,961.18
2016-11-19T11:10:29.923Z,961.23
2016-11-19T11:11:29.883Z,961.26
2016-11-19T11:12:29.844Z,961.35
2016-11-19T11:13:29.804Z,961.35
2016-11-19T11:14:29.763Z,961.29
2016-11-19T11:15:29.725Z,961.34
2016-11-19T11:16:29.683Z,961.35
2016-11-19T11:17:29.644Z,961.44
2016-11-19T11:18:29.606Z,961.57
2016-11-19T11:19:29.564Z,961.56
2016-11-19T11:20:29.524Z,961.6
2016-11-19T11:21:29.485Z,961.57
2016-11-19T11:22:29.449Z,961.53
2016-11-19T11:23:29.406Z,961.51
2016-11-19T11:24:29.364Z,961.46
2016-11-19T11:25:29.325Z,961.46
2016-11-19T11:26:29.287Z,961.48
2016-11-19T11:27:29.247Z,961.52
2016-11-19T11:28:29.207Z,961.48
2016-11-19T11:29:29.167Z,961.53
2016-11-19T11:30:29.129Z,961.46
2016-11-19T11:31:29.087Z,961.44
2016-11-19T11:32:29.048Z,961.49
2016-11-19T11:33:29.008Z,961.49
2016-11-19T11:34:28.967Z,961.52
2016-11-19T11:35:28.928Z,961.5
2016-11-19T11:36:28.891Z,961.45
2016-11-19T11:37:28.849Z,961.41
2016-11-19T11:38:28.808Z,961.39
2016-11-19T11:39:28.769Z,961.4
2016-11-19T11:40:28.729Z,961.37
2016-11-19T11:41:28.691Z,961.42
2016-11-19T11:42:28.649Z,961.45
2016-11-19T11:43:28.611Z,961.45
2016-11-19T11:44:28.571Z,961.47
2016-11-19T11:45:28.531Z,961.49
2016-11-19T11:46:28.491Z,961.49
2016-11-19T11:47:28.456Z,961.48
2016-11-19T11:48:28.412Z,961.52
2016-11-19T11:49:28.373Z,961.53
2016-11-19T11:50:28.335Z,961.56
2016-11-19T11:51:28.299Z,961.54
2016-11-19T11:52:28.253Z,961.6
2016-11-19T11:53:28.214Z,961.66
2016-11-19T11:54:28.176Z,961.64
2016-11-19T11:55:28.136Z,961.67
2016-11-19T11:56:28.096Z,961.71
2016-11-19T11:57:28.057Z,961.73
2016-11-19T11:58:28.018Z,961.73
2016-11-19T11:59:27.996Z,961.67
2016-11-19T12:00:27.939Z,961.58
2016-11-19T12:01:27.898Z,961.45
2016-11-19T12:02:27.861Z,961.46
2016-11-19T12:03:27.819Z,961.45
2016-11-19T12:04:27.781Z,961.54
2016-11-19T12:05:27.743Z,961.48
2016-11-19T12:06:27.703Z,961.52
2016-11-19T12:07:27.664Z,961.52
2016-11-19T12:08:27.623Z,961.51
2016-11-19T12:09:27.584Z,961.52
2016-11-19T12:10:27.571Z,961.52
2016-11-19T12:11:27.506Z,961.66
2016-11-19T12:12:27.467Z,961.76
2016-11-19T12:13:27.427Z,961.8
2016-11-19T12:14:27.388Z,961.81
2016-11-19T12:15:27.348Z,961.79
2016-11-19T12:16:27.310Z,961.82
2016-11-19T12:17:27.269Z,961.85
2016-11-19T12:18:27.230Z,961.88
2016-11-19T12:19:27.190Z,961.85
2016-11-19T12:20:27.152Z,961.88
2016-11-19T12:21:27.112Z,961.96
2016-11-19T12:22:27.075Z,962.01
2016-11-19T12:23:27.035Z,961.95
2016-11-19T12:24:26.994Z,961.95
2016-11-19T12:25:26.955Z,961.88
2016-11-19T12:26:26.915Z,961.82
2016-11-19T12:27:26.877Z,961.84
2016-11-19T12:28:26.837Z,961.83
2016-11-19T12:29:26.797Z,961.8
2016-11-19T12:30:26.759Z,961.81